createdAt,value
2023-01-19T00:00:58.417Z,93363.53
2023-01-19T00:03:44.690Z,93363.25
2023-01-19T00:06:31.557Z,93343.06
2023-01-19T00:09:17.740Z,93335.19
2023-01-19T00:12:04.220Z,93349.97
2023-01-19T00:14:50.519Z,93353.16
2023-01-19T00:17:36.645Z,93333.69
2023-01-19T00:20:22.488Z,93349.97
2023-01-19T00:23:08.859Z,93373.16
2023-01-19T00:25:54.904Z,93352.69
2023-01-19T00:28:41.013Z,93339.84
2023-01-19T00:31:30.087Z,93355.38
2023-01-19T00:34:16.113Z,93339.13
2023-01-19T00:37:03.032Z,93387.94
2023-01-19T00:39:49.155Z,93370.16
2023-01-19T00:42:41.495Z,93377.81
2023-01-19T00:45:27.222Z,93364.75
2023-01-19T00:48:13.459Z,93356.63
2023-01-19T00:51:00.119Z,93386.69
2023-01-19T00:53:46.291Z,93383.22
2023-01-19T00:56:32.570Z,93387.94
2023-01-19T00:59:18.740Z,93355.38
2023-01-19T01:02:05.434Z,93374.38
2023-01-19T01:04:54.891Z,93369.69
2023-01-19T01:07:41.270Z,93413.06
2023-01-19T01:10:28.225Z,93378.56
2023-01-19T01:13:20.766Z,93394.84
2023-01-19T01:16:09.963Z,93400.97
2023-01-19T01:18:56.063Z,93382.00
2023-01-19T01:21:42.270Z,93376.59
2023-01-19T01:24:28.504Z,93362.31
2023-01-19T01:27:14.759Z,93366.50
2023-01-19T01:30:01.169Z,93382.75
2023-01-19T01:32:47.283Z,93401.75
2023-01-19T01:35:33.983Z,93380.06
2023-01-19T01:38:20.193Z,93390.91
2023-01-19T01:41:06.490Z,93396.31
2023-01-19T01:43:58.674Z,93412.59
2023-01-19T01:46:44.578Z,93408.66
2023-01-19T01:49:31.029Z,93392.38
2023-01-19T01:52:17.084Z,93408.66
2023-01-19T01:55:03.630Z,93386.97
2023-01-19T01:57:50.608Z,93403.22
2023-01-19T02:00:55.494Z,93381.53
2023-01-19T02:03:41.446Z,93400.53
2023-01-19T02:06:27.296Z,93386.97
2023-01-19T02:09:32.174Z,93400.53
2023-01-19T02:12:36.907Z,93413.63
2023-01-19T02:15:22.919Z,93402.28
2023-01-19T02:18:09.307Z,93407.69
2023-01-19T02:20:55.437Z,93354.94
2023-01-19T02:23:47.844Z,93388.72
2023-01-19T02:26:34.948Z,93379.34
2023-01-19T02:29:21.706Z,93357.66
2023-01-19T02:32:07.824Z,93397.09
2023-01-19T02:34:53.984Z,93396.84
2023-01-19T02:37:40.257Z,93382.81
2023-01-19T02:40:26.180Z,93403.03
2023-01-19T02:43:12.351Z,93403.75
2023-01-19T02:45:58.501Z,93366.56
2023-01-19T02:48:44.662Z,93377.41
2023-01-19T02:51:30.523Z,93404.50
2023-01-19T02:54:16.576Z,93426.94
2023-01-19T02:57:21.205Z,93394.41
2023-01-19T03:00:26.349Z,93404.50
2023-01-19T03:03:19.611Z,93391.69
2023-01-19T03:06:06.910Z,93388.97
2023-01-19T03:09:25.318Z,93385.03
2023-01-19T03:12:31.523Z,93394.41
2023-01-19T03:15:17.678Z,93413.38
2023-01-19T03:18:04.071Z,93391.69
2023-01-19T03:20:50.392Z,93368.03
2023-01-19T03:23:37.151Z,93382.81
2023-01-19T03:26:24.853Z,93392.44
2023-01-19T03:29:10.757Z,93409.44
2023-01-19T03:31:56.701Z,93374.19
2023-01-19T03:34:43.029Z,93387.75
2023-01-19T03:37:29.581Z,93378.88
2023-01-19T03:40:15.794Z,93368.78
2023-01-19T03:43:02.873Z,93366.81
2023-01-19T03:45:49.327Z,93378.38
2023-01-19T03:48:35.644Z,93385.78
2023-01-19T03:51:22.130Z,93363.34
2023-01-19T03:54:09.827Z,93343.16
2023-01-19T03:56:55.594Z,93362.13
2023-01-19T03:59:41.882Z,93380.38
2023-01-19T04:02:28.395Z,93364.84
2023-01-19T04:05:14.561Z,93364.09
2023-01-19T04:08:00.770Z,93386.53
2023-01-19T04:10:46.820Z,93386.53
2023-01-19T04:13:32.919Z,93359.41
2023-01-19T04:16:21.238Z,93359.41
2023-01-19T04:19:07.356Z,93376.44
2023-01-19T04:21:53.421Z,93321.94
2023-01-19T04:24:39.660Z,93348.56
2023-01-19T04:27:26.149Z,93343.16
2023-01-19T04:30:12.716Z,93343.16
2023-01-19T04:32:59.611Z,93339.25
2023-01-19T04:35:46.601Z,93337.00
2023-01-19T04:38:32.825Z,93343.16
2023-01-19T04:41:18.971Z,93316.78
2023-01-19T04:44:04.997Z,93348.56
2023-01-19T04:46:52.166Z,93354.00
2023-01-19T04:49:38.210Z,93360.94
2023-01-19T04:52:24.940Z,93358.69
2023-01-19T04:55:10.921Z,93347.84
2023-01-19T04:57:56.930Z,93359.41
2023-01-19T05:00:43.343Z,93371.03
2023-01-19T05:03:29.833Z,93360.94
2023-01-19T05:06:16.156Z,93371.03
2023-01-19T05:09:02.575Z,93385.78
2023-01-19T05:11:48.882Z,93390.47
2023-01-19T05:14:34.987Z,93393.47
2023-01-19T05:17:21.138Z,93405.50
2023-01-19T05:20:07.742Z,93421.31
2023-01-19T05:22:53.873Z,93419.34
2023-01-19T05:25:39.993Z,93413.94
2023-01-19T05:28:26.759Z,93420.66
2023-01-19T05:31:13.011Z,93390.84
2023-01-19T05:33:59.113Z,93388.34
2023-01-19T05:36:45.301Z,93384.13
2023-01-19T05:39:31.732Z,93402.13
2023-01-19T05:42:17.767Z,93397.94
2023-01-19T05:45:03.884Z,93412.72
2023-01-19T05:47:50.953Z,93435.13
2023-01-19T05:50:37.408Z,93430.72
2023-01-19T05:53:23.800Z,93448.75
2023-01-19T05:56:10.560Z,93433.44
2023-01-19T05:58:56.549Z,93424.28
2023-01-19T06:01:42.609Z,93413.44
2023-01-19T06:04:28.745Z,93435.63
2023-01-19T06:07:14.811Z,93434.13
2023-01-19T06:10:01.172Z,93443.00
2023-01-19T06:12:47.182Z,93420.59
2023-01-19T06:15:33.333Z,93441.78
2023-01-19T06:18:19.488Z,93447.69
2023-01-19T06:21:09.455Z,93461.25
2023-01-19T06:23:55.450Z,93456.31
2023-01-19T06:26:43.295Z,93448.44
2023-01-19T06:29:29.573Z,93464.69
2023-01-19T06:32:15.611Z,93478.25
2023-01-19T06:35:01.911Z,93476.06
2023-01-19T06:37:48.805Z,93489.91
2023-01-19T06:40:34.911Z,93478.13
2023-01-19T06:43:21.210Z,93485.75
2023-01-19T06:46:07.444Z,93507.47
2023-01-19T06:48:54.215Z,93510.16
2023-01-19T06:51:40.343Z,93516.34
2023-01-19T06:54:27.274Z,93514.09
2023-01-19T06:57:14.001Z,93519.53
2023-01-19T07:00:02.076Z,93506.22
2023-01-19T07:02:48.355Z,93537.56
2023-01-19T07:05:34.758Z,93526.44
2023-01-19T07:08:20.969Z,93523.19
2023-01-19T07:11:26.056Z,93517.25
2023-01-19T07:14:14.058Z,93513.97
2023-01-19T07:17:01.631Z,93508.28
2023-01-19T07:19:47.646Z,93506.78
2023-01-19T07:22:33.593Z,93524.00
2023-01-19T07:25:20.888Z,93536.09
2023-01-19T07:28:06.978Z,93540.75
2023-01-19T07:30:53.359Z,93529.16
2023-01-19T07:33:39.130Z,93523.75
2023-01-19T07:36:25.440Z,93559.00
2023-01-19T07:39:11.635Z,93535.81
2023-01-19T07:41:57.524Z,93535.81
2023-01-19T07:44:43.948Z,93523.22
2023-01-19T07:47:30.100Z,93531.34
2023-01-19T07:50:16.716Z,93515.09
2023-01-19T07:53:06.456Z,93522.25
2023-01-19T07:55:56.529Z,93517.09
2023-01-19T07:58:42.611Z,93530.19
2023-01-19T08:01:29.773Z,93539.56
2023-01-19T08:04:16.221Z,93562.44
2023-01-19T08:07:03.825Z,93540.97
2023-01-19T08:09:50.123Z,93552.28
2023-01-19T08:12:36.212Z,93553.50
2023-01-19T08:15:24.127Z,93565.56
2023-01-19T08:18:11.576Z,93550.06
2023-01-19T08:21:00.797Z,93555.47
2023-01-19T08:23:54.047Z,93553.97
2023-01-19T08:26:39.984Z,93549.69
2023-01-19T08:29:26.219Z,93583.53
2023-01-19T08:32:12.625Z,93551.25
2023-01-19T08:34:58.759Z,93550.56
2023-01-19T08:37:44.635Z,93553.34
2023-01-19T08:40:33.783Z,93575.81
2023-01-19T08:43:19.857Z,93580.28
2023-01-19T08:46:06.075Z,93554.63
2023-01-19T08:48:52.010Z,93587.91
2023-01-19T08:51:38.362Z,93568.47
2023-01-19T08:54:24.343Z,93597.13
2023-01-19T08:57:10.547Z,93564.56
2023-01-19T08:59:56.531Z,93577.66
2023-01-19T09:02:42.820Z,93582.59
2023-01-19T09:05:29.189Z,93585.31
2023-01-19T09:08:15.133Z,93601.13
2023-01-19T09:11:01.540Z,93587.53
2023-01-19T09:13:47.540Z,93581.38
2023-01-19T09:16:33.769Z,93559.66
2023-01-19T09:19:19.924Z,93567.78
2023-01-19T09:22:06.328Z,93572.75
2023-01-19T09:24:52.413Z,93531.28
2023-01-19T09:27:38.587Z,93581.84
2023-01-19T09:30:24.958Z,93547.31
2023-01-19T09:33:11.868Z,93528.31
2023-01-19T09:35:57.984Z,93563.59
2023-01-19T09:38:44.317Z,93553.97
2023-01-19T09:41:30.354Z,93563.59
2023-01-19T09:44:17.270Z,93546.56
2023-01-19T09:47:03.213Z,93553.97
2023-01-19T09:49:58.892Z,93547.81
2023-01-19T09:52:44.743Z,93541.63
2023-01-19T09:55:31.145Z,93536.94
2023-01-19T09:58:19.276Z,93530.03
2023-01-19T10:01:08.128Z,93512.25
2023-01-19T10:03:58.895Z,93532.00
2023-01-19T10:06:44.766Z,93525.03
2023-01-19T10:09:40.595Z,93520.84
2023-01-19T10:12:39.685Z,93500.34
2023-01-19T10:15:44.837Z,93505.78
2023-01-19T10:18:43.408Z,93503.53
2023-01-19T10:21:31.563Z,93486.53
2023-01-19T10:24:19.357Z,93504.03
2023-01-19T10:27:05.550Z,93502.56
2023-01-19T10:29:51.606Z,93481.31
2023-01-19T10:32:37.844Z,93494.88
2023-01-19T10:35:27.045Z,93530.63
2023-01-19T10:38:13.705Z,93517.53
2023-01-19T10:41:07.373Z,93504.94
2023-01-19T10:43:58.905Z,93505.66
2023-01-19T10:46:46.173Z,93504.19
2023-01-19T10:49:39.560Z,93536.19
2023-01-19T10:52:30.080Z,93489.81
2023-01-19T10:55:35.228Z,93472.25
2023-01-19T10:58:28.771Z,93496.66
2023-01-19T11:01:18.450Z,93505.56
2023-01-19T11:04:19.196Z,93509.50
2023-01-19T11:07:15.930Z,93494.72
2023-01-19T11:10:11.686Z,93497.44
2023-01-19T11:12:57.597Z,93474.97
2023-01-19T11:15:44.810Z,93483.88
2023-01-19T11:18:32.468Z,93472.00
2023-01-19T11:21:18.592Z,93470.00
2023-01-19T11:24:05.473Z,93460.38
2023-01-19T11:26:57.524Z,93461.63
2023-01-19T11:29:47.747Z,93462.84
2023-01-19T11:32:36.958Z,93456.88
2023-01-19T11:35:35.341Z,93458.56
2023-01-19T11:38:23.176Z,93465.50
2023-01-19T11:41:14.278Z,93460.63
2023-01-19T11:44:05.699Z,93440.88
2023-01-19T11:46:53.748Z,93441.84
2023-01-19T11:49:47.506Z,93458.56
2023-01-19T11:52:33.403Z,93453.66
2023-01-19T11:55:38.139Z,93416.91
2023-01-19T11:58:24.054Z,93437.13
2023-01-19T12:01:21.100Z,93421.31
2023-01-19T12:04:09.849Z,93431.44
2023-01-19T12:06:56.147Z,93430.66
2023-01-19T12:09:45.715Z,93427.69
2023-01-19T12:12:32.709Z,93426.94
2023-01-19T12:15:18.829Z,93424.22
2023-01-19T12:18:05.707Z,93416.09
2023-01-19T12:20:52.694Z,93440.44
2023-01-19T12:23:51.324Z,93411.38
2023-01-19T12:26:46.458Z,93427.38
2023-01-19T12:29:33.388Z,93415.03
2023-01-19T12:32:20.293Z,93425.88
2023-01-19T12:35:06.622Z,93439.16
2023-01-19T12:37:52.420Z,93450.00
2023-01-19T12:40:39.034Z,93424.13
2023-01-19T12:43:25.291Z,93436.91
2023-01-19T12:46:18.930Z,93431.25
2023-01-19T12:49:23.782Z,93443.56
2023-01-19T12:52:13.153Z,93443.31
2023-01-19T12:55:05.338Z,93435.16
2023-01-19T12:58:04.889Z,93442.53
2023-01-19T13:00:51.907Z,93426.28
2023-01-19T13:03:40.964Z,93430.22
2023-01-19T13:06:46.127Z,93428.72
2023-01-19T13:09:32.775Z,93450.69
2023-01-19T13:12:22.742Z,93449.19
2023-01-19T13:15:28.276Z,93463.50
2023-01-19T13:18:20.500Z,93453.38
2023-01-19T13:21:06.849Z,93452.84
2023-01-19T13:23:53.950Z,93458.34
2023-01-19T13:26:41.445Z,93438.06
2023-01-19T13:29:30.327Z,93457.25
2023-01-19T13:32:18.721Z,93447.34
2023-01-19T13:35:05.465Z,93443.63
2023-01-19T13:37:51.792Z,93421.94
2023-01-19T13:40:40.627Z,93414.09
2023-01-19T13:43:28.364Z,93400.25
2023-01-19T13:46:14.405Z,93416.00
2023-01-19T13:49:02.262Z,93398.78
2023-01-19T13:52:06.096Z,93405.69
2023-01-19T13:54:53.397Z,93414.09
2023-01-19T13:57:43.115Z,93413.81
2023-01-19T14:00:29.851Z,93414.31
2023-01-19T14:03:15.789Z,93427.09
2023-01-19T14:06:02.165Z,93418.16
2023-01-19T14:08:55.207Z,93427.03
2023-01-19T14:11:41.532Z,93428.72
2023-01-19T14:14:27.747Z,93411.00
2023-01-19T14:17:23.052Z,93432.66
2023-01-19T14:20:27.937Z,93433.38
2023-01-19T14:23:32.960Z,93448.16
2023-01-19T14:26:37.520Z,93448.91
2023-01-19T14:29:27.675Z,93446.66
2023-01-19T14:32:17.872Z,93450.59
2023-01-19T14:35:06.924Z,93454.97
2023-01-19T14:37:53.347Z,93450.78
2023-01-19T14:40:39.546Z,93457.16
2023-01-19T14:43:28.639Z,93454.44
2023-01-19T14:46:18.703Z,93473.41
2023-01-19T14:49:05.076Z,93459.59
2023-01-19T14:51:51.373Z,93463.53
2023-01-19T14:54:38.416Z,93452.69
2023-01-19T14:57:24.436Z,93455.13
2023-01-19T15:00:17.406Z,93462.22
2023-01-19T15:03:06.227Z,93454.59
2023-01-19T15:05:52.385Z,93454.59
2023-01-19T15:08:39.013Z,93464.19
2023-01-19T15:11:34.548Z,93450.09
2023-01-19T15:14:20.967Z,93457.75
2023-01-19T15:17:09.833Z,93477.94
2023-01-19T15:19:56.300Z,93488.00
2023-01-19T15:22:42.267Z,93499.59
2023-01-19T15:25:30.495Z,93494.91
2023-01-19T15:28:19.925Z,93491.00
2023-01-19T15:31:05.990Z,93486.78
2023-01-19T15:33:51.867Z,93496.63
2023-01-19T15:36:40.187Z,93481.59
2023-01-19T15:39:26.360Z,93485.25
2023-01-19T15:42:15.719Z,93480.56
2023-01-19T15:45:01.705Z,93491.38
2023-01-19T15:47:47.750Z,93496.81
2023-01-19T15:50:34.141Z,93491.13
2023-01-19T15:53:20.765Z,93502.41
2023-01-19T15:56:10.741Z,93512.78
2023-01-19T15:58:57.920Z,93531.47
2023-01-19T16:01:44.022Z,93535.84
2023-01-19T16:04:30.060Z,93536.88
2023-01-19T16:07:16.233Z,93555.56
2023-01-19T16:10:02.357Z,93563.19
2023-01-19T16:12:48.387Z,93573.56
2023-01-19T16:15:35.308Z,93580.47
2023-01-19T16:18:21.133Z,93596.53
2023-01-19T16:21:06.773Z,93609.59
2023-01-19T16:23:53.384Z,93646.78
2023-01-19T16:26:39.434Z,93642.38
2023-01-19T16:29:25.430Z,93658.94
2023-01-19T16:32:11.667Z,93656.50
2023-01-19T16:34:57.947Z,93647.16
2023-01-19T16:37:44.121Z,93662.19
2023-01-19T16:40:30.739Z,93665.16
2023-01-19T16:43:18.302Z,93667.88
2023-01-19T16:46:04.571Z,93675.25
2023-01-19T16:48:51.113Z,93649.38
2023-01-19T16:51:37.169Z,93643.22
2023-01-19T16:54:23.751Z,93627.72
2023-01-19T16:57:10.111Z,93643.22
2023-01-19T16:59:56.373Z,93633.88
2023-01-19T17:02:43.192Z,93648.25
2023-01-19T17:05:29.073Z,93620.03
2023-01-19T17:08:15.465Z,93639.66
2023-01-19T17:11:02.925Z,93643.94
2023-01-19T17:13:56.058Z,93619.81
2023-01-19T17:16:42.307Z,93580.88
2023-01-19T17:19:28.129Z,93575.72
2023-01-19T17:22:15.059Z,93578.44
2023-01-19T17:25:01.208Z,93600.41
2023-01-19T17:27:47.452Z,93605.81
2023-01-19T17:30:33.645Z,93607.31
2023-01-19T17:33:20.062Z,93602.91
2023-01-19T17:36:07.412Z,93598.22
2023-01-19T17:38:53.615Z,93592.81
2023-01-19T17:41:39.785Z,93601.97
2023-01-19T17:44:26.048Z,93610.09
2023-01-19T17:47:12.016Z,93617.75
2023-01-19T17:49:58.239Z,93615.31
2023-01-19T17:52:44.351Z,93642.06
2023-01-19T17:55:32.805Z,93657.75
2023-01-19T17:58:18.658Z,93668.31
2023-01-19T18:01:23.576Z,93674.47
2023-01-19T18:04:09.668Z,93684.84
2023-01-19T18:06:55.750Z,93671.31
2023-01-19T18:09:41.998Z,93670.81
2023-01-19T18:12:28.151Z,93680.94
2023-01-19T18:15:16.702Z,93686.66
2023-01-19T18:18:03.123Z,93691.00
2023-01-19T18:20:49.133Z,93687.38
2023-01-19T18:23:35.484Z,93686.94
2023-01-19T18:26:21.972Z,93685.25
2023-01-19T18:29:07.945Z,93702.25
2023-01-19T18:31:54.234Z,93705.22
2023-01-19T18:34:40.459Z,93705.22
2023-01-19T18:37:26.348Z,93691.22
2023-01-19T18:40:12.912Z,93683.09
2023-01-19T18:42:59.017Z,93682.59
2023-01-19T18:45:45.780Z,93689.53
2023-01-19T18:48:32.001Z,93681.28
2023-01-19T18:51:18.023Z,93671.19
2023-01-19T18:54:04.203Z,93665.00
2023-01-19T18:56:50.558Z,93664.53
2023-01-19T18:59:36.405Z,93665.56
2023-01-19T19:02:24.316Z,93667.34
2023-01-19T19:05:10.452Z,93677.09
2023-01-19T19:07:56.718Z,93677.03
2023-01-19T19:10:42.749Z,93665.44
2023-01-19T19:13:28.737Z,93677.03
2023-01-19T19:16:14.994Z,93672.38
2023-01-19T19:19:01.132Z,93676.56
2023-01-19T19:21:47.338Z,93684.25
2023-01-19T19:24:33.114Z,93699.06
2023-01-19T19:27:19.478Z,93699.38
2023-01-19T19:30:05.857Z,93702.72
2023-01-19T19:32:56.892Z,93716.91
2023-01-19T19:35:43.170Z,93729.47
2023-01-19T19:38:29.373Z,93734.16
2023-01-19T19:41:16.527Z,93744.63
2023-01-19T19:44:02.558Z,93731.75
2023-01-19T19:46:48.872Z,93716.44
2023-01-19T19:49:34.810Z,93701.06
2023-01-19T19:52:21.261Z,93694.91
2023-01-19T19:55:07.812Z,93674.25
2023-01-19T19:57:54.899Z,93655.53
2023-01-19T20:00:44.076Z,93632.91
2023-01-19T20:03:30.882Z,93610.72
2023-01-19T20:06:21.364Z,93615.22
2023-01-19T20:09:08.611Z,93664.31
2023-01-19T20:11:54.835Z,93656.16
2023-01-19T20:14:40.900Z,93676.66
2023-01-19T20:17:27.323Z,93690.94
2023-01-19T20:20:13.627Z,93694.41
2023-01-19T20:23:00.153Z,93701.31
2023-01-19T20:25:46.491Z,93698.63
2023-01-19T20:28:32.751Z,93700.88
2023-01-19T20:31:19.838Z,93695.44
2023-01-19T20:34:06.744Z,93695.44
2023-01-19T20:36:54.021Z,93664.38
2023-01-19T20:39:41.735Z,93648.38
2023-01-19T20:42:27.711Z,93628.63
2023-01-19T20:45:14.115Z,93636.31
2023-01-19T20:48:00.407Z,93661.00
2023-01-19T20:50:46.154Z,93650.66
2023-01-19T20:53:32.459Z,93631.16
2023-01-19T20:56:18.700Z,93627.22
2023-01-19T20:59:05.011Z,93620.56
2023-01-19T21:01:51.381Z,93596.22
2023-01-19T21:04:37.626Z,93593.59
2023-01-19T21:07:23.779Z,93624.84
2023-01-19T21:10:10.064Z,93625.03
2023-01-19T21:12:56.211Z,93626.25
2023-01-19T21:15:42.494Z,93617.84
2023-01-19T21:18:28.756Z,93616.34
2023-01-19T21:21:28.739Z,93633.34
2023-01-19T21:24:15.891Z,93664.41
2023-01-19T21:27:02.138Z,93673.31
2023-01-19T21:29:48.482Z,93665.44
2023-01-19T21:32:34.600Z,93668.44
2023-01-19T21:35:20.589Z,93641.03
2023-01-19T21:38:06.862Z,93616.13
2023-01-19T21:40:52.922Z,93618.84
2023-01-19T21:43:39.188Z,93613.91
2023-01-19T21:46:33.184Z,93612.22
2023-01-19T21:49:19.873Z,93611.00
2023-01-19T21:52:05.577Z,93600.63
2023-01-19T21:54:51.789Z,93584.34
2023-01-19T21:57:38.002Z,93583.41
2023-01-19T22:00:24.354Z,93581.91
2023-01-19T22:03:10.490Z,93584.88
2023-01-19T22:05:56.548Z,93581.91
2023-01-19T22:08:44.798Z,93595.75
2023-01-19T22:11:30.990Z,93596.97
2023-01-19T22:14:16.881Z,93586.88
2023-01-19T22:17:03.310Z,93609.56
2023-01-19T22:19:49.223Z,93611.56
2023-01-19T22:22:35.053Z,93595.53
2023-01-19T22:25:24.748Z,93598.72
2023-01-19T22:28:10.936Z,93588.63
2023-01-19T22:31:04.316Z,93566.16
2023-01-19T22:33:50.987Z,93555.31
2023-01-19T22:36:37.419Z,93553.38
2023-01-19T22:39:23.595Z,93558.78
2023-01-19T22:42:09.500Z,93556.81
2023-01-19T22:44:55.711Z,93549.16
2023-01-19T22:47:41.957Z,93548.41
2023-01-19T22:50:28.244Z,93544.47
2023-01-19T22:53:14.507Z,93551.19
2023-01-19T22:56:01.005Z,93547.47
2023-01-19T22:58:47.309Z,93550.66
2023-01-19T23:01:42.801Z,93539.53
2023-01-19T23:04:29.012Z,93545.69
2023-01-19T23:07:15.007Z,93555.06
2023-01-19T23:10:01.327Z,93565.16
2023-01-19T23:12:48.692Z,93562.91
2023-01-19T23:15:34.977Z,93560.22
2023-01-19T23:18:20.986Z,93564.59
2023-01-19T23:21:07.358Z,93586.59
2023-01-19T23:23:57.013Z,93604.56
2023-01-19T23:26:43.079Z,93630.19
2023-01-19T23:29:29.591Z,93659.53
2023-01-19T23:32:15.488Z,93680.50
2023-01-19T23:35:01.552Z,93682.44
2023-01-19T23:37:47.754Z,93679.00
2023-01-19T23:40:33.896Z,93661.25
2023-01-19T23:43:20.052Z,93639.53
2023-01-19T23:46:07.137Z,93636.56
2023-01-19T23:48:52.811Z,93631.13
2023-01-19T23:51:39.155Z,93627.22
2023-01-19T23:54:25.329Z,93609.44
2023-01-19T23:57:11.455Z,93622.50
2023-01-19T23:59:57.598Z,93631.88
